sensor_id;sensor_type;location;lat;lon;timestamp;P1;durP1;ratioP1;P2;durP2;ratioP2
18443;SDS011;9350;53.176;8.194;2023-05-07T00:02:14;23.73;;;11.75;;
18443;SDS011;9350;53.176;8.194;2023-05-07T00:04:40;18.85;;;12.25;;
18443;SDS011;9350;53.176;8.194;2023-05-07T00:07:07;19.77;;;11.85;;
18443;SDS011;9350;53.176;8.194;2023-05-07T00:09:34;20.05;;;11.68;;
18443;SDS011;9350;53.176;8.194;2023-05-07T00:12:03;19.63;;;12.10;;
18443;SDS011;9350;53.176;8.194;2023-05-07T00:14:30;19.85;;;12.20;;
18443;SDS011;9350;53.176;8.194;2023-05-07T00:16:57;20.45;;;12.23;;
18443;SDS011;9350;53.176;8.194;2023-05-07T00:19:24;17.70;;;11.52;;
18443;SDS011;9350;53.176;8.194;2023-05-07T00:21:50;22.50;;;13.27;;
18443;SDS011;9350;53.176;8.194;2023-05-07T00:24:18;21.75;;;13.18;;
18443;SDS011;9350;53.176;8.194;2023-05-07T00:26:45;21.67;;;12.05;;
18443;SDS011;9350;53.176;8.194;2023-05-07T00:29:13;20.45;;;11.63;;
18443;SDS011;9350;53.176;8.194;2023-05-07T00:31:40;25.75;;;12.65;;
18443;SDS011;9350;53.176;8.194;2023-05-07T00:34:06;22.42;;;13.00;;
18443;SDS011;9350;53.176;8.194;2023-05-07T00:36:33;20.08;;;12.77;;
18443;SDS011;9350;53.176;8.194;2023-05-07T00:39:00;20.02;;;12.77;;
18443;SDS011;9350;53.176;8.194;2023-05-07T00:41:28;20.52;;;12.57;;
18443;SDS011;9350;53.176;8.194;2023-05-07T00:43:55;22.67;;;13.45;;
18443;SDS011;9350;53.176;8.194;2023-05-07T00:46:24;20.90;;;13.30;;
18443;SDS011;9350;53.176;8.194;2023-05-07T00:48:51;22.65;;;12.88;;
18443;SDS011;9350;53.176;8.194;2023-05-07T00:51:19;21.77;;;12.90;;
18443;SDS011;9350;53.176;8.194;2023-05-07T00:53:46;19.95;;;12.90;;
18443;SDS011;9350;53.176;8.194;2023-05-07T00:56:13;22.23;;;13.30;;
18443;SDS011;9350;53.176;8.194;2023-05-07T00:58:40;19.10;;;12.32;;
18443;SDS011;9350;53.176;8.194;2023-05-07T01:01:07;20.50;;;12.48;;
18443;SDS011;9350;53.176;8.194;2023-05-07T01:03:36;18.02;;;11.77;;
18443;SDS011;9350;53.176;8.194;2023-05-07T01:06:03;18.77;;;12.23;;
18443;SDS011;9350;53.176;8.194;2023-05-07T01:08:32;20.05;;;12.25;;
18443;SDS011;9350;53.176;8.194;2023-05-07T01:11:00;19.63;;;12.93;;
18443;SDS011;9350;53.176;8.194;2023-05-07T01:13:27;21.80;;;12.88;;
18443;SDS011;9350;53.176;8.194;2023-05-07T01:15:54;20.83;;;13.18;;
18443;SDS011;9350;53.176;8.194;2023-05-07T01:18:21;19.08;;;12.57;;
18443;SDS011;9350;53.176;8.194;2023-05-07T01:20:49;20.85;;;12.95;;
18443;SDS011;9350;53.176;8.194;2023-05-07T01:23:17;22.27;;;13.52;;
18443;SDS011;9350;53.176;8.194;2023-05-07T01:25:50;21.80;;;12.80;;
18443;SDS011;9350;53.176;8.194;2023-05-07T01:28:17;18.63;;;12.20;;
18443;SDS011;9350;53.176;8.194;2023-05-07T01:30:44;17.70;;;12.38;;
18443;SDS011;9350;53.176;8.194;2023-05-07T01:33:13;19.02;;;12.38;;
18443;SDS011;9350;53.176;8.194;2023-05-07T01:35:43;21.58;;;13.07;;
18443;SDS011;9350;53.176;8.194;2023-05-07T01:38:13;20.85;;;13.23;;
18443;SDS011;9350;53.176;8.194;2023-05-07T01:40:42;19.83;;;12.35;;
18443;SDS011;9350;53.176;8.194;2023-05-07T01:43:09;19.73;;;12.15;;
18443;SDS011;9350;53.176;8.194;2023-05-07T01:45:36;17.92;;;12.18;;
18443;SDS011;9350;53.176;8.194;2023-05-07T01:48:05;19.63;;;12.70;;
18443;SDS011;9350;53.176;8.194;2023-05-07T01:50:33;17.92;;;11.98;;
18443;SDS011;9350;53.176;8.194;2023-05-07T01:53:00;21.38;;;12.23;;
18443;SDS011;9350;53.176;8.194;2023-05-07T01:55:27;19.52;;;12.32;;
18443;SDS011;9350;53.176;8.194;2023-05-07T01:57:55;18.15;;;12.80;;
18443;SDS011;9350;53.176;8.194;2023-05-07T02:00:22;16.38;;;12.23;;
18443;SDS011;9350;53.176;8.194;2023-05-07T02:02:49;16.67;;;11.73;;
18443;SDS011;9350;53.176;8.194;2023-05-07T02:05:17;18.48;;;12.63;;
18443;SDS011;9350;53.176;8.194;2023-05-07T02:07:44;17.25;;;11.90;;
18443;SDS011;9350;53.176;8.194;2023-05-07T02:10:11;21.02;;;13.13;;
18443;SDS011;9350;53.176;8.194;2023-05-07T02:12:37;16.75;;;11.88;;
18443;SDS011;9350;53.176;8.194;2023-05-07T02:15:06;19.70;;;12.18;;
18443;SDS011;9350;53.176;8.194;2023-05-07T02:17:33;17.65;;;12.48;;
18443;SDS011;9350;53.176;8.194;2023-05-07T02:20:02;18.77;;;12.48;;
18443;SDS011;9350;53.176;8.194;2023-05-07T02:22:29;17.90;;;12.93;;
18443;SDS011;9350;53.176;8.194;2023-05-07T02:24:56;22.38;;;12.93;;
18443;SDS011;9350;53.176;8.194;2023-05-07T02:27:23;18.35;;;13.05;;
18443;SDS011;9350;53.176;8.194;2023-05-07T02:29:49;19.80;;;13.23;;
18443;SDS011;9350;53.176;8.194;2023-05-07T02:32:17;19.10;;;12.75;;
18443;SDS011;9350;53.176;8.194;2023-05-07T02:34:44;19.52;;;13.15;;
18443;SDS011;9350;53.176;8.194;2023-05-07T02:37:11;19.55;;;13.38;;
18443;SDS011;9350;53.176;8.194;2023-05-07T02:39:38;18.17;;;12.48;;
18443;SDS011;9350;53.176;8.194;2023-05-07T02:42:04;19.63;;;12.90;;
18443;SDS011;9350;53.176;8.194;2023-05-07T02:44:31;19.42;;;13.48;;
18443;SDS011;9350;53.176;8.194;2023-05-07T02:46:58;19.10;;;12.88;;
18443;SDS011;9350;53.176;8.194;2023-05-07T02:49:26;21.17;;;13.80;;
18443;SDS011;9350;53.176;8.194;2023-05-07T02:51:52;20.65;;;13.10;;
18443;SDS011;9350;53.176;8.194;2023-05-07T02:54:20;20.48;;;12.38;;
18443;SDS011;9350;53.176;8.194;2023-05-07T02:56:47;19.58;;;13.38;;
18443;SDS011;9350;53.176;8.194;2023-05-07T02:59:13;18.85;;;12.95;;
18443;SDS011;9350;53.176;8.194;2023-05-07T03:01:40;19.83;;;13.65;;
18443;SDS011;9350;53.176;8.194;2023-05-07T03:04:08;19.38;;;13.20;;
18443;SDS011;9350;53.176;8.194;2023-05-07T03:06:37;18.52;;;13.13;;
18443;SDS011;9350;53.176;8.194;2023-05-07T03:09:04;19.85;;;13.20;;
18443;SDS011;9350;53.176;8.194;2023-05-07T03:11:31;19.75;;;13.18;;
18443;SDS011;9350;53.176;8.194;2023-05-07T03:13:57;24.80;;;13.73;;
18443;SDS011;9350;53.176;8.194;2023-05-07T03:16:24;19.05;;;12.80;;
18443;SDS011;9350;53.176;8.194;2023-05-07T03:18:51;19.73;;;12.82;;
18443;SDS011;9350;53.176;8.194;2023-05-07T03:21:18;19.52;;;12.65;;
18443;SDS011;9350;53.176;8.194;2023-05-07T03:23:46;20.40;;;13.45;;
18443;SDS011;9350;53.176;8.194;2023-05-07T03:26:13;20.88;;;13.25;;
18443;SDS011;9350;53.176;8.194;2023-05-07T03:28:40;20.17;;;12.80;;
18443;SDS011;9350;53.176;8.194;2023-05-07T03:31:06;20.02;;;12.52;;
18443;SDS011;9350;53.176;8.194;2023-05-07T03:33:33;19.30;;;12.60;;
18443;SDS011;9350;53.176;8.194;2023-05-07T03:36:00;21.27;;;12.93;;
18443;SDS011;9350;53.176;8.194;2023-05-07T03:38:27;17.38;;;12.00;;
18443;SDS011;9350;53.176;8.194;2023-05-07T03:40:55;18.02;;;11.50;;
18443;SDS011;9350;53.176;8.194;2023-05-07T03:43:21;18.05;;;12.63;;
18443;SDS011;9350;53.176;8.194;2023-05-07T03:45:48;17.30;;;12.15;;
18443;SDS011;9350;53.176;8.194;2023-05-07T03:48:15;18.30;;;11.77;;
18443;SDS011;9350;53.176;8.194;2023-05-07T03:50:42;18.17;;;12.05;;
18443;SDS011;9350;53.176;8.194;2023-05-07T03:53:08;17.77;;;12.25;;
18443;SDS011;9350;53.176;8.194;2023-05-07T03:55:35;18.17;;;11.93;;
18443;SDS011;9350;53.176;8.194;2023-05-07T03:58:03;19.63;;;12.63;;
18443;SDS011;9350;53.176;8.194;2023-05-07T04:00:30;20.67;;;12.18;;
18443;SDS011;9350;53.176;8.194;2023-05-07T04:02:58;18.38;;;11.18;;
18443;SDS011;9350;53.176;8.194;2023-05-07T04:05:25;21.40;;;12.00;;
18443;SDS011;9350;53.176;8.194;2023-05-07T04:07:52;19.88;;;12.15;;
18443;SDS011;9350;53.176;8.194;2023-05-07T04:10:18;17.85;;;11.35;;
18443;SDS011;9350;53.176;8.194;2023-05-07T04:12:45;19.05;;;11.48;;
18443;SDS011;9350;53.176;8.194;2023-05-07T04:15:14;16.55;;;11.15;;
18443;SDS011;9350;53.176;8.194;2023-05-07T04:17:40;17.73;;;10.98;;
18443;SDS011;9350;53.176;8.194;2023-05-07T04:20:08;16.38;;;10.95;;
18443;SDS011;9350;53.176;8.194;2023-05-07T04:22:36;15.25;;;10.27;;
18443;SDS011;9350;53.176;8.194;2023-05-07T04:25:03;16.27;;;10.40;;
18443;SDS011;9350;53.176;8.194;2023-05-07T04:27:30;15.20;;;10.52;;
18443;SDS011;9350;53.176;8.194;2023-05-07T04:29:57;14.38;;;10.23;;
18443;SDS011;9350;53.176;8.194;2023-05-07T04:32:27;17.80;;;10.43;;
18443;SDS011;9350;53.176;8.194;2023-05-07T04:34:54;14.18;;;9.80;;
18443;SDS011;9350;53.176;8.194;2023-05-07T04:37:20;17.60;;;10.63;;
18443;SDS011;9350;53.176;8.194;2023-05-07T04:39:47;15.15;;;10.10;;
18443;SDS011;9350;53.176;8.194;2023-05-07T04:42:14;15.35;;;10.05;;
18443;SDS011;9350;53.176;8.194;2023-05-07T04:44:41;16.25;;;10.43;;
18443;SDS011;9350;53.176;8.194;2023-05-07T04:47:09;13.15;;;9.57;;
18443;SDS011;9350;53.176;8.194;2023-05-07T04:49:37;14.63;;;10.27;;
18443;SDS011;9350;53.176;8.194;2023-05-07T04:52:04;14.43;;;9.75;;
18443;SDS011;9350;53.176;8.194;2023-05-07T04:54:31;13.55;;;10.20;;
18443;SDS011;9350;53.176;8.194;2023-05-07T04:56:57;14.55;;;9.85;;
18443;SDS011;9350;53.176;8.194;2023-05-07T04:59:24;15.07;;;9.80;;
18443;SDS011;9350;53.176;8.194;2023-05-07T05:01:51;14.63;;;9.68;;
18443;SDS011;9350;53.176;8.194;2023-05-07T05:04:17;14.10;;;9.45;;
18443;SDS011;9350;53.176;8.194;2023-05-07T05:06:45;15.77;;;9.77;;
18443;SDS011;9350;53.176;8.194;2023-05-07T05:09:12;16.70;;;10.07;;
18443;SDS011;9350;53.176;8.194;2023-05-07T05:11:39;14.75;;;9.77;;
18443;SDS011;9350;53.176;8.194;2023-05-07T05:14:06;15.10;;;10.13;;
18443;SDS011;9350;53.176;8.194;2023-05-07T05:16:33;16.88;;;10.23;;
18443;SDS011;9350;53.176;8.194;2023-05-07T05:19:01;15.95;;;9.95;;
18443;SDS011;9350;53.176;8.194;2023-05-07T05:21:28;14.77;;;10.63;;
18443;SDS011;9350;53.176;8.194;2023-05-07T05:23:56;17.35;;;10.88;;
18443;SDS011;9350;53.176;8.194;2023-05-07T05:26:23;15.75;;;9.98;;
18443;SDS011;9350;53.176;8.194;2023-05-07T05:28:49;15.02;;;10.73;;
18443;SDS011;9350;53.176;8.194;2023-05-07T05:31:16;16.45;;;10.35;;
18443;SDS011;9350;53.176;8.194;2023-05-07T05:33:43;18.95;;;11.35;;
18443;SDS011;9350;53.176;8.194;2023-05-07T05:36:10;16.52;;;10.50;;
18443;SDS011;9350;53.176;8.194;2023-05-07T05:38:38;15.45;;;10.45;;
18443;SDS011;9350;53.176;8.194;2023-05-07T05:41:06;20.17;;;11.30;;
18443;SDS011;9350;53.176;8.194;2023-05-07T05:43:33;16.92;;;11.15;;
18443;SDS011;9350;53.176;8.194;2023-05-07T05:46:00;18.88;;;11.57;;
18443;SDS011;9350;53.176;8.194;2023-05-07T05:48:29;16.13;;;11.00;;
18443;SDS011;9350;53.176;8.194;2023-05-07T05:50:56;17.58;;;11.48;;
18443;SDS011;9350;53.176;8.194;2023-05-07T05:53:23;18.10;;;11.52;;
18443;SDS011;9350;53.176;8.194;2023-05-07T05:55:50;17.15;;;10.48;;
18443;SDS011;9350;53.176;8.194;2023-05-07T05:58:18;16.90;;;10.95;;
18443;SDS011;9350;53.176;8.194;2023-05-07T06:00:45;16.05;;;10.77;;
18443;SDS011;9350;53.176;8.194;2023-05-07T06:03:13;19.33;;;11.82;;
18443;SDS011;9350;53.176;8.194;2023-05-07T06:05:42;15.90;;;10.63;;
18443;SDS011;9350;53.176;8.194;2023-05-07T06:08:08;15.68;;;10.32;;
18443;SDS011;9350;53.176;8.194;2023-05-07T06:10:36;16.70;;;10.80;;
18443;SDS011;9350;53.176;8.194;2023-05-07T06:13:03;14.27;;;9.95;;
18443;SDS011;9350;53.176;8.194;2023-05-07T06:15:31;16.58;;;11.30;;
18443;SDS011;9350;53.176;8.194;2023-05-07T06:17:58;17.48;;;11.00;;
18443;SDS011;9350;53.176;8.194;2023-05-07T06:20:24;16.05;;;10.60;;
18443;SDS011;9350;53.176;8.194;2023-05-07T06:22:52;16.75;;;10.45;;
18443;SDS011;9350;53.176;8.194;2023-05-07T06:25:19;17.45;;;10.30;;
18443;SDS011;9350;53.176;8.194;2023-05-07T06:27:46;14.23;;;10.23;;
18443;SDS011;9350;53.176;8.194;2023-05-07T06:30:15;15.82;;;10.45;;
18443;SDS011;9350;53.176;8.194;2023-05-07T06:32:43;14.40;;;10.15;;
18443;SDS011;9350;53.176;8.194;2023-05-07T06:35:10;15.48;;;10.45;;
18443;SDS011;9350;53.176;8.194;2023-05-07T06:37:37;16.50;;;10.70;;
18443;SDS011;9350;53.176;8.194;2023-05-07T06:40:07;15.93;;;10.40;;
18443;SDS011;9350;53.176;8.194;2023-05-07T06:42:35;14.52;;;10.25;;
18443;SDS011;9350;53.176;8.194;2023-05-07T06:45:03;14.50;;;10.07;;
18443;SDS011;9350;53.176;8.194;2023-05-07T06:47:30;14.55;;;9.77;;
18443;SDS011;9350;53.176;8.194;2023-05-07T06:50:01;14.77;;;9.48;;
18443;SDS011;9350;53.176;8.194;2023-05-07T06:52:28;14.55;;;10.07;;
18443;SDS011;9350;53.176;8.194;2023-05-07T06:54:55;14.63;;;9.82;;
18443;SDS011;9350;53.176;8.194;2023-05-07T06:57:22;14.13;;;8.98;;
18443;SDS011;9350;53.176;8.194;2023-05-07T06:59:51;12.35;;;8.73;;
18443;SDS011;9350;53.176;8.194;2023-05-07T07:02:18;12.48;;;8.57;;
18443;SDS011;9350;53.176;8.194;2023-05-07T07:04:45;12.13;;;8.25;;
18443;SDS011;9350;53.176;8.194;2023-05-07T07:07:16;13.10;;;8.57;;
18443;SDS011;9350;53.176;8.194;2023-05-07T07:09:44;11.90;;;8.90;;
18443;SDS011;9350;53.176;8.194;2023-05-07T07:12:10;11.52;;;8.65;;
18443;SDS011;9350;53.176;8.194;2023-05-07T07:14:37;11.07;;;8.45;;
18443;SDS011;9350;53.176;8.194;2023-05-07T07:17:04;12.40;;;8.63;;
18443;SDS011;9350;53.176;8.194;2023-05-07T07:19:31;12.15;;;8.60;;
18443;SDS011;9350;53.176;8.194;2023-05-07T07:21:57;9.93;;;8.13;;
18443;SDS011;9350;53.176;8.194;2023-05-07T07:24:25;11.40;;;8.25;;
18443;SDS011;9350;53.176;8.194;2023-05-07T07:26:52;11.77;;;8.00;;
18443;SDS011;9350;53.176;8.194;2023-05-07T07:29:20;10.85;;;7.63;;
18443;SDS011;9350;53.176;8.194;2023-05-07T07:31:47;10.23;;;7.28;;
18443;SDS011;9350;53.176;8.194;2023-05-07T07:34:14;10.00;;;7.75;;
18443;SDS011;9350;53.176;8.194;2023-05-07T07:36:41;9.90;;;8.07;;
18443;SDS011;9350;53.176;8.194;2023-05-07T07:39:08;10.82;;;8.15;;
18443;SDS011;9350;53.176;8.194;2023-05-07T07:41:36;9.63;;;7.20;;
18443;SDS011;9350;53.176;8.194;2023-05-07T07:44:03;12.57;;;7.47;;
18443;SDS011;9350;53.176;8.194;2023-05-07T07:46:32;11.35;;;7.65;;
18443;SDS011;9350;53.176;8.194;2023-05-07T07:48:59;11.48;;;7.32;;
18443;SDS011;9350;53.176;8.194;2023-05-07T07:51:26;9.50;;;6.93;;
18443;SDS011;9350;53.176;8.194;2023-05-07T07:53:52;8.85;;;7.75;;
18443;SDS011;9350;53.176;8.194;2023-05-07T07:56:19;9.32;;;7.82;;
18443;SDS011;9350;53.176;8.194;2023-05-07T07:58:47;9.00;;;7.47;;
18443;SDS011;9350;53.176;8.194;2023-05-07T08:01:14;10.15;;;7.75;;
18443;SDS011;9350;53.176;8.194;2023-05-07T08:03:41;10.35;;;7.65;;
18443;SDS011;9350;53.176;8.194;2023-05-07T08:06:08;10.07;;;7.60;;
18443;SDS011;9350;53.176;8.194;2023-05-07T08:08:35;9.63;;;7.43;;
18443;SDS011;9350;53.176;8.194;2023-05-07T08:11:02;9.68;;;7.53;;
18443;SDS011;9350;53.176;8.194;2023-05-07T08:13:28;10.13;;;7.90;;
18443;SDS011;9350;53.176;8.194;2023-05-07T08:15:56;8.48;;;7.53;;
18443;SDS011;9350;53.176;8.194;2023-05-07T08:18:24;11.00;;;8.43;;
18443;SDS011;9350;53.176;8.194;2023-05-07T08:20:53;11.00;;;7.82;;
18443;SDS011;9350;53.176;8.194;2023-05-07T08:23:20;10.80;;;8.10;;
18443;SDS011;9350;53.176;8.194;2023-05-07T08:25:47;10.63;;;8.30;;
18443;SDS011;9350;53.176;8.194;2023-05-07T08:28:14;10.60;;;8.48;;
18443;SDS011;9350;53.176;8.194;2023-05-07T08:30:40;10.02;;;8.05;;
18443;SDS011;9350;53.176;8.194;2023-05-07T08:33:09;10.48;;;8.00;;
18443;SDS011;9350;53.176;8.194;2023-05-07T08:35:36;9.68;;;7.47;;
18443;SDS011;9350;53.176;8.194;2023-05-07T08:38:03;8.68;;;7.10;;
18443;SDS011;9350;53.176;8.194;2023-05-07T08:40:29;11.05;;;7.68;;
18443;SDS011;9350;53.176;8.194;2023-05-07T08:43:02;10.02;;;8.00;;
18443;SDS011;9350;53.176;8.194;2023-05-07T08:45:31;10.93;;;8.13;;
18443;SDS011;9350;53.176;8.194;2023-05-07T08:48:01;10.65;;;7.90;;
18443;SDS011;9350;53.176;8.194;2023-05-07T08:50:32;9.32;;;7.90;;
18443;SDS011;9350;53.176;8.194;2023-05-07T08:53:02;11.00;;;8.27;;
18443;SDS011;9350;53.176;8.194;2023-05-07T08:55:29;9.27;;;7.63;;
18443;SDS011;9350;53.176;8.194;2023-05-07T08:57:56;14.18;;;7.80;;
18443;SDS011;9350;53.176;8.194;2023-05-07T09:00:22;10.15;;;8.32;;
18443;SDS011;9350;53.176;8.194;2023-05-07T09:02:49;9.35;;;7.90;;
18443;SDS011;9350;53.176;8.194;2023-05-07T09:05:16;10.27;;;8.57;;
18443;SDS011;9350;53.176;8.194;2023-05-07T09:07:45;12.32;;;8.88;;
18443;SDS011;9350;53.176;8.194;2023-05-07T09:10:11;20.75;;;10.65;;
18443;SDS011;9350;53.176;8.194;2023-05-07T09:12:39;14.95;;;8.82;;
18443;SDS011;9350;53.176;8.194;2023-05-07T09:15:06;10.10;;;8.00;;
18443;SDS011;9350;53.176;8.194;2023-05-07T09:17:34;9.13;;;8.05;;
18443;SDS011;9350;53.176;8.194;2023-05-07T09:20:04;11.32;;;8.07;;
18443;SDS011;9350;53.176;8.194;2023-05-07T09:22:31;9.35;;;7.95;;
18443;SDS011;9350;53.176;8.194;2023-05-07T09:25:00;10.70;;;8.50;;
18443;SDS011;9350;53.176;8.194;2023-05-07T09:27:26;10.07;;;7.90;;
18443;SDS011;9350;53.176;8.194;2023-05-07T09:29:53;15.15;;;7.53;;
18443;SDS011;9350;53.176;8.194;2023-05-07T09:32:21;11.38;;;8.20;;
18443;SDS011;9350;53.176;8.194;2023-05-07T09:34:47;8.57;;;7.68;;
18443;SDS011;9350;53.176;8.194;2023-05-07T09:37:14;8.77;;;7.53;;
18443;SDS011;9350;53.176;8.194;2023-05-07T09:39:43;9.07;;;7.53;;
18443;SDS011;9350;53.176;8.194;2023-05-07T09:42:12;9.60;;;7.43;;
18443;SDS011;9350;53.176;8.194;2023-05-07T09:44:40;8.63;;;7.22;;
18443;SDS011;9350;53.176;8.194;2023-05-07T09:47:07;8.88;;;7.28;;
18443;SDS011;9350;53.176;8.194;2023-05-07T09:49:35;8.10;;;6.97;;
18443;SDS011;9350;53.176;8.194;2023-05-07T09:52:03;8.45;;;7.60;;
18443;SDS011;9350;53.176;8.194;2023-05-07T09:54:33;8.88;;;7.05;;
18443;SDS011;9350;53.176;8.194;2023-05-07T09:57:03;13.10;;;7.93;;
18443;SDS011;9350;53.176;8.194;2023-05-07T09:59:33;16.98;;;9.18;;
18443;SDS011;9350;53.176;8.194;2023-05-07T10:02:03;8.20;;;7.00;;
18443;SDS011;9350;53.176;8.194;2023-05-07T10:04:31;10.10;;;6.68;;
18443;SDS011;9350;53.176;8.194;2023-05-07T10:06:58;6.97;;;6.28;;
18443;SDS011;9350;53.176;8.194;2023-05-07T10:09:26;8.90;;;6.78;;
18443;SDS011;9350;53.176;8.194;2023-05-07T10:11:52;6.95;;;6.22;;
18443;SDS011;9350;53.176;8.194;2023-05-07T10:14:21;7.10;;;6.38;;
18443;SDS011;9350;53.176;8.194;2023-05-07T10:16:49;7.78;;;6.45;;
18443;SDS011;9350;53.176;8.194;2023-05-07T10:19:16;7.93;;;6.53;;
18443;SDS011;9350;53.176;8.194;2023-05-07T10:21:48;7.65;;;6.28;;
18443;SDS011;9350;53.176;8.194;2023-05-07T10:24:22;7.18;;;6.47;;
18443;SDS011;9350;53.176;8.194;2023-05-07T10:26:52;9.82;;;6.45;;
18443;SDS011;9350;53.176;8.194;2023-05-07T10:29:24;7.82;;;6.45;;
18443;SDS011;9350;53.176;8.194;2023-05-07T10:31:59;8.50;;;6.63;;
18443;SDS011;9350;53.176;8.194;2023-05-07T10:34:38;7.47;;;6.78;;
18443;SDS011;9350;53.176;8.194;2023-05-07T10:37:09;8.18;;;7.03;;
18443;SDS011;9350;53.176;8.194;2023-05-07T10:39:37;8.20;;;6.35;;
18443;SDS011;9350;53.176;8.194;2023-05-07T10:42:07;7.65;;;6.57;;
18443;SDS011;9350;53.176;8.194;2023-05-07T10:44:35;7.35;;;6.63;;
18443;SDS011;9350;53.176;8.194;2023-05-07T10:47:18;7.10;;;6.32;;
18443;SDS011;9350;53.176;8.194;2023-05-07T10:58:51;9.10;;;7.00;;
18443;SDS011;9350;53.176;8.194;2023-05-07T11:04:25;7.53;;;6.80;;
18443;SDS011;9350;53.176;8.194;2023-05-07T11:09:58;8.38;;;7.05;;
18443;SDS011;9350;53.176;8.194;2023-05-07T11:12:46;10.07;;;7.32;;
18443;SDS011;9350;53.176;8.194;2023-05-07T11:15:13;10.18;;;7.43;;
18443;SDS011;9350;53.176;8.194;2023-05-07T11:17:52;9.65;;;7.50;;
18443;SDS011;9350;53.176;8.194;2023-05-07T11:20:21;8.38;;;7.50;;
18443;SDS011;9350;53.176;8.194;2023-05-07T11:23:20;8.95;;;7.05;;
18443;SDS011;9350;53.176;8.194;2023-05-07T11:26:26;9.57;;;8.00;;
18443;SDS011;9350;53.176;8.194;2023-05-07T11:28:54;8.77;;;7.32;;
18443;SDS011;9350;53.176;8.194;2023-05-07T11:31:22;8.70;;;7.75;;
18443;SDS011;9350;53.176;8.194;2023-05-07T11:33:50;8.75;;;7.55;;
18443;SDS011;9350;53.176;8.194;2023-05-07T11:36:20;8.85;;;7.95;;
18443;SDS011;9350;53.176;8.194;2023-05-07T11:38:48;10.80;;;7.75;;
18443;SDS011;9350;53.176;8.194;2023-05-07T11:41:15;10.00;;;7.43;;
18443;SDS011;9350;53.176;8.194;2023-05-07T11:43:56;9.18;;;7.88;;
18443;SDS011;9350;53.176;8.194;2023-05-07T11:46:24;9.30;;;7.75;;
18443;SDS011;9350;53.176;8.194;2023-05-07T11:48:51;9.55;;;8.13;;
18443;SDS011;9350;53.176;8.194;2023-05-07T11:51:23;9.23;;;7.78;;
18443;SDS011;9350;53.176;8.194;2023-05-07T11:53:51;8.50;;;7.57;;
18443;SDS011;9350;53.176;8.194;2023-05-07T11:56:19;10.10;;;6.97;;
18443;SDS011;9350;53.176;8.194;2023-05-07T11:58:46;9.75;;;7.32;;
18443;SDS011;9350;53.176;8.194;2023-05-07T12:01:13;8.50;;;7.50;;
18443;SDS011;9350;53.176;8.194;2023-05-07T12:03:42;9.77;;;7.70;;
18443;SDS011;9350;53.176;8.194;2023-05-07T12:06:11;11.93;;;7.72;;
18443;SDS011;9350;53.176;8.194;2023-05-07T12:08:40;8.38;;;7.10;;
18443;SDS011;9350;53.176;8.194;2023-05-07T12:11:08;9.43;;;7.70;;
18443;SDS011;9350;53.176;8.194;2023-05-07T12:13:36;9.30;;;8.02;;
18443;SDS011;9350;53.176;8.194;2023-05-07T12:16:03;9.50;;;7.90;;
18443;SDS011;9350;53.176;8.194;2023-05-07T12:18:31;10.65;;;7.82;;
18443;SDS011;9350;53.176;8.194;2023-05-07T12:20:59;9.52;;;7.43;;
18443;SDS011;9350;53.176;8.194;2023-05-07T12:23:26;9.90;;;7.55;;
18443;SDS011;9350;53.176;8.194;2023-05-07T12:25:55;8.65;;;7.75;;
18443;SDS011;9350;53.176;8.194;2023-05-07T12:28:22;10.85;;;8.50;;
18443;SDS011;9350;53.176;8.194;2023-05-07T12:30:49;10.00;;;8.27;;
18443;SDS011;9350;53.176;8.194;2023-05-07T12:33:17;8.55;;;7.65;;
18443;SDS011;9350;53.176;8.194;2023-05-07T12:35:47;10.27;;;7.80;;
18443;SDS011;9350;53.176;8.194;2023-05-07T12:38:14;8.57;;;7.32;;
18443;SDS011;9350;53.176;8.194;2023-05-07T12:40:43;9.77;;;7.55;;
18443;SDS011;9350;53.176;8.194;2023-05-07T12:43:16;9.77;;;7.47;;
18443;SDS011;9350;53.176;8.194;2023-05-07T12:45:43;8.60;;;7.70;;
18443;SDS011;9350;53.176;8.194;2023-05-07T12:48:12;8.52;;;7.40;;
18443;SDS011;9350;53.176;8.194;2023-05-07T12:50:39;8.10;;;7.20;;
18443;SDS011;9350;53.176;8.194;2023-05-07T12:53:06;10.13;;;8.38;;
18443;SDS011;9350;53.176;8.194;2023-05-07T12:55:40;9.82;;;8.15;;
18443;SDS011;9350;53.176;8.194;2023-05-07T12:58:08;8.85;;;7.60;;
18443;SDS011;9350;53.176;8.194;2023-05-07T13:00:42;9.48;;;7.80;;
18443;SDS011;9350;53.176;8.194;2023-05-07T13:03:09;9.95;;;7.82;;
18443;SDS011;9350;53.176;8.194;2023-05-07T13:05:36;9.70;;;7.72;;
18443;SDS011;9350;53.176;8.194;2023-05-07T13:08:02;8.05;;;7.22;;
18443;SDS011;9350;53.176;8.194;2023-05-07T13:10:30;11.13;;;7.57;;
18443;SDS011;9350;53.176;8.194;2023-05-07T13:12:57;11.32;;;8.20;;
18443;SDS011;9350;53.176;8.194;2023-05-07T13:15:24;9.57;;;7.40;;
18443;SDS011;9350;53.176;8.194;2023-05-07T13:17:53;9.20;;;8.10;;
18443;SDS011;9350;53.176;8.194;2023-05-07T13:20:20;7.93;;;7.00;;
18443;SDS011;9350;53.176;8.194;2023-05-07T13:22:47;9.93;;;7.78;;
18443;SDS011;9350;53.176;8.194;2023-05-07T13:25:13;7.90;;;6.30;;
18443;SDS011;9350;53.176;8.194;2023-05-07T13:27:40;7.40;;;6.40;;
18443;SDS011;9350;53.176;8.194;2023-05-07T13:30:07;9.10;;;7.80;;
18443;SDS011;9350;53.176;8.194;2023-05-07T13:32:34;7.95;;;6.95;;
18443;SDS011;9350;53.176;8.194;2023-05-07T13:35:02;9.68;;;6.60;;
18443;SDS011;9350;53.176;8.194;2023-05-07T13:37:29;7.03;;;6.22;;
18443;SDS011;9350;53.176;8.194;2023-05-07T13:39:56;7.20;;;6.13;;
18443;SDS011;9350;53.176;8.194;2023-05-07T13:42:23;9.10;;;6.88;;
18443;SDS011;9350;53.176;8.194;2023-05-07T13:44:49;9.20;;;6.90;;
18443;SDS011;9350;53.176;8.194;2023-05-07T13:47:16;8.10;;;6.60;;
18443;SDS011;9350;53.176;8.194;2023-05-07T13:49:43;8.82;;;6.72;;
18443;SDS011;9350;53.176;8.194;2023-05-07T13:52:11;8.02;;;6.22;;
18443;SDS011;9350;53.176;8.194;2023-05-07T13:54:37;6.22;;;5.63;;
18443;SDS011;9350;53.176;8.194;2023-05-07T13:57:04;7.50;;;6.32;;
18443;SDS011;9350;53.176;8.194;2023-05-07T13:59:31;6.32;;;5.72;;
18443;SDS011;9350;53.176;8.194;2023-05-07T14:01:58;8.05;;;6.07;;
18443;SDS011;9350;53.176;8.194;2023-05-07T14:04:24;6.55;;;5.95;;
18443;SDS011;9350;53.176;8.194;2023-05-07T14:06:51;6.35;;;5.28;;
18443;SDS011;9350;53.176;8.194;2023-05-07T14:09:19;6.65;;;6.03;;
18443;SDS011;9350;53.176;8.194;2023-05-07T14:11:46;6.03;;;5.53;;
18443;SDS011;9350;53.176;8.194;2023-05-07T14:14:16;6.45;;;5.85;;
18443;SDS011;9350;53.176;8.194;2023-05-07T14:16:42;6.88;;;6.20;;
18443;SDS011;9350;53.176;8.194;2023-05-07T14:19:09;6.32;;;5.72;;
18443;SDS011;9350;53.176;8.194;2023-05-07T14:21:36;6.72;;;6.10;;
18443;SDS011;9350;53.176;8.194;2023-05-07T14:24:03;8.05;;;6.40;;
18443;SDS011;9350;53.176;8.194;2023-05-07T14:26:31;8.27;;;5.28;;
18443;SDS011;9350;53.176;8.194;2023-05-07T14:28:58;6.03;;;5.50;;
18443;SDS011;9350;53.176;8.194;2023-05-07T14:31:25;8.18;;;5.72;;
18443;SDS011;9350;53.176;8.194;2023-05-07T14:33:52;5.78;;;5.28;;
18443;SDS011;9350;53.176;8.194;2023-05-07T14:36:18;5.85;;;5.18;;
18443;SDS011;9350;53.176;8.194;2023-05-07T14:38:47;6.10;;;5.50;;
18443;SDS011;9350;53.176;8.194;2023-05-07T14:41:14;5.78;;;5.28;;
18443;SDS011;9350;53.176;8.194;2023-05-07T14:43:42;5.47;;;4.93;;
18443;SDS011;9350;53.176;8.194;2023-05-07T14:46:14;6.95;;;5.75;;
18443;SDS011;9350;53.176;8.194;2023-05-07T14:48:41;5.57;;;4.78;;
18443;SDS011;9350;53.176;8.194;2023-05-07T14:51:09;5.63;;;5.07;;
18443;SDS011;9350;53.176;8.194;2023-05-07T14:53:35;5.25;;;4.70;;
18443;SDS011;9350;53.176;8.194;2023-05-07T14:56:02;6.35;;;5.30;;
18443;SDS011;9350;53.176;8.194;2023-05-07T14:58:29;6.10;;;5.18;;
18443;SDS011;9350;53.176;8.194;2023-05-07T15:00:58;6.57;;;4.80;;
18443;SDS011;9350;53.176;8.194;2023-05-07T15:03:25;5.68;;;4.75;;
18443;SDS011;9350;53.176;8.194;2023-05-07T15:05:51;4.45;;;4.07;;
18443;SDS011;9350;53.176;8.194;2023-05-07T15:08:18;5.18;;;4.78;;